<?xml version="1.0" encoding="UTF-8" standalone="no" ?>
<gpx xmlns="http://www.topografix.com/GPX/1/1" xmlns:xsi="http://www.w3.org/2001/XMLSchema-instance" xsi:schemaLocation="http://www.topografix.com/GPX/1/1 http://www.topografix.com/GPX/1/1/gpx.xsd" version="1.1" creator="VisuGPX - https://www.visugpx.com">
  <metadata>
    <name>Compostelle St Chely- Espalion</name>
  </metadata>
  <wpt lat="44.52583" lon="2.72841">
    <ele>337.4</ele>
  </wpt>
  <trk>
    <name><![CDATA[Compostelle St Chely- Espalion_3]]></name>
    <trkseg>
      <trkpt lat="44.52843" lon="2.73072">
        <ele>326.5</ele>
        <time>2012-08-10T13:15:52Z</time>
      </trkpt>
      <trkpt lat="44.5285" lon="2.73072">
        <ele>326.5</ele>
        <time>2012-08-10T13:15:53Z</time>
      </trkpt>
      <trkpt lat="44.52856" lon="2.73073">
        <ele>326.99</ele>
        <time>2012-08-10T13:15:54Z</time>
      </trkpt>
      <trkpt lat="44.52911" lon="2.7308">
        <ele>329.39</ele>
        <time>2012-08-10T13:16:06Z</time>
      </trkpt>
      <trkpt lat="44.52951" lon="2.73069">
        <ele>333.23</ele>
        <time>2012-08-10T13:16:18Z</time>
      </trkpt>
      <trkpt lat="44.52982" lon="2.73029">
        <ele>336.12</ele>
        <time>2012-08-10T13:16:31Z</time>
      </trkpt>
      <trkpt lat="44.53011" lon="2.7299">
        <ele>339.48</ele>
        <time>2012-08-10T13:16:45Z</time>
      </trkpt>
      <trkpt lat="44.53045" lon="2.72941">
        <ele>342.37</ele>
        <time>2012-08-10T13:17:00Z</time>
      </trkpt>
      <trkpt lat="44.53078" lon="2.72886">
        <ele>345.73</ele>
        <time>2012-08-10T13:17:16Z</time>
      </trkpt>
      <trkpt lat="44.53109" lon="2.7285">
        <ele>349.1</ele>
        <time>2012-08-10T13:17:28Z</time>
      </trkpt>
      <trkpt lat="44.53113" lon="2.72847">
        <ele>349.58</ele>
        <time>2012-08-10T13:17:29Z</time>
      </trkpt>
      <trkpt lat="44.53177" lon="2.72811">
        <ele>350.54</ele>
        <time>2012-08-10T13:17:42Z</time>
      </trkpt>
      <trkpt lat="44.5323" lon="2.72794">
        <ele>347.17</ele>
        <time>2012-08-10T13:17:50Z</time>
      </trkpt>
      <trkpt lat="44.53317" lon="2.72724">
        <ele>339</ele>
        <time>2012-08-10T13:18:01Z</time>
      </trkpt>
      <trkpt lat="44.53398" lon="2.7265">
        <ele>333.71</ele>
        <time>2012-08-10T13:18:13Z</time>
      </trkpt>
      <trkpt lat="44.53453" lon="2.72564">
        <ele>331.79</ele>
        <time>2012-08-10T13:18:26Z</time>
      </trkpt>
      <trkpt lat="44.53491" lon="2.72468">
        <ele>332.75</ele>
        <time>2012-08-10T13:18:40Z</time>
      </trkpt>
      <trkpt lat="44.53512" lon="2.7236">
        <ele>333.71</ele>
        <time>2012-08-10T13:18:55Z</time>
      </trkpt>
      <trkpt lat="44.53545" lon="2.72298">
        <ele>333.23</ele>
        <time>2012-08-10T13:19:08Z</time>
      </trkpt>
      <trkpt lat="44.53593" lon="2.72221">
        <ele>330.83</ele>
        <time>2012-08-10T13:19:23Z</time>
      </trkpt>
      <trkpt lat="44.53653" lon="2.72136">
        <ele>329.87</ele>
        <time>2012-08-10T13:19:39Z</time>
      </trkpt>
      <trkpt lat="44.53674" lon="2.72045">
        <ele>328.91</ele>
        <time>2012-08-10T13:19:52Z</time>
      </trkpt>
      <trkpt lat="44.53694" lon="2.71966">
        <ele>331.31</ele>
        <time>2012-08-10T13:20:08Z</time>
      </trkpt>
      <trkpt lat="44.53716" lon="2.71887">
        <ele>333.71</ele>
        <time>2012-08-10T13:20:26Z</time>
      </trkpt>
      <trkpt lat="44.53735" lon="2.71794">
        <ele>336.12</ele>
        <time>2012-08-10T13:20:45Z</time>
      </trkpt>
      <trkpt lat="44.53777" lon="2.71714">
        <ele>338.52</ele>
        <time>2012-08-10T13:21:04Z</time>
      </trkpt>
      <trkpt lat="44.53786" lon="2.71705">
        <ele>338.52</ele>
        <time>2012-08-10T13:21:07Z</time>
      </trkpt>
      <trkpt lat="44.5379" lon="2.71703">
        <ele>338.52</ele>
        <time>2012-08-10T13:21:08Z</time>
      </trkpt>
      <trkpt lat="44.53794" lon="2.71702">
        <ele>338.52</ele>
        <time>2012-08-10T13:21:09Z</time>
      </trkpt>
      <trkpt lat="44.53803" lon="2.717">
        <ele>339</ele>
        <time>2012-08-10T13:21:11Z</time>
      </trkpt>
      <trkpt lat="44.53808" lon="2.717">
        <ele>339</ele>
        <time>2012-08-10T13:21:12Z</time>
      </trkpt>
      <trkpt lat="44.53835" lon="2.71701">
        <ele>338.04</ele>
        <time>2012-08-10T13:21:17Z</time>
      </trkpt>
      <trkpt lat="44.5384" lon="2.717">
        <ele>338.04</ele>
        <time>2012-08-10T13:21:18Z</time>
      </trkpt>
      <trkpt lat="44.53868" lon="2.71693">
        <ele>337.08</ele>
        <time>2012-08-10T13:21:22Z</time>
      </trkpt>
      <trkpt lat="44.53968" lon="2.7162">
        <ele>334.2</ele>
        <time>2012-08-10T13:21:36Z</time>
      </trkpt>
      <trkpt lat="44.54046" lon="2.71532">
        <ele>332.27</ele>
        <time>2012-08-10T13:21:50Z</time>
      </trkpt>
      <trkpt lat="44.54065" lon="2.71493">
        <ele>332.27</ele>
        <time>2012-08-10T13:22:02Z</time>
      </trkpt>
      <trkpt lat="44.54077" lon="2.71456">
        <ele>335.64</ele>
        <time>2012-08-10T13:22:18Z</time>
      </trkpt>
      <trkpt lat="44.54082" lon="2.71426">
        <ele>335.16</ele>
        <time>2012-08-10T13:22:33Z</time>
      </trkpt>
      <trkpt lat="44.54094" lon="2.71391">
        <ele>335.64</ele>
        <time>2012-08-10T13:22:50Z</time>
      </trkpt>
      <trkpt lat="44.541" lon="2.71377">
        <ele>337.56</ele>
        <time>2012-08-10T13:22:56Z</time>
      </trkpt>
      <trkpt lat="44.54101" lon="2.71374">
        <ele>337.56</ele>
        <time>2012-08-10T13:22:57Z</time>
      </trkpt>
      <trkpt lat="44.54101" lon="2.71372">
        <ele>337.56</ele>
        <time>2012-08-10T13:22:58Z</time>
      </trkpt>
      <trkpt lat="44.54102" lon="2.7137">
        <ele>337.56</ele>
        <time>2012-08-10T13:22:59Z</time>
      </trkpt>
      <trkpt lat="44.54102" lon="2.71368">
        <ele>337.56</ele>
        <time>2012-08-10T13:23:00Z</time>
      </trkpt>
      <trkpt lat="44.54103" lon="2.71366">
        <ele>337.56</ele>
        <time>2012-08-10T13:23:01Z</time>
      </trkpt>
      <trkpt lat="44.54103" lon="2.71364">
        <ele>337.56</ele>
        <time>2012-08-10T13:23:02Z</time>
      </trkpt>
      <trkpt lat="44.54104" lon="2.71361">
        <ele>337.08</ele>
        <time>2012-08-10T13:23:04Z</time>
      </trkpt>
      <trkpt lat="44.54104" lon="2.71359">
        <ele>337.08</ele>
        <time>2012-08-10T13:23:05Z</time>
      </trkpt>
      <trkpt lat="44.54105" lon="2.71353">
        <ele>336.6</ele>
        <time>2012-08-10T13:23:09Z</time>
      </trkpt>
      <trkpt lat="44.54106" lon="2.71351">
        <ele>337.08</ele>
        <time>2012-08-10T13:23:10Z</time>
      </trkpt>
      <trkpt lat="44.54109" lon="2.71341">
        <ele>338.04</ele>
        <time>2012-08-10T13:23:15Z</time>
      </trkpt>
      <trkpt lat="44.54118" lon="2.71314">
        <ele>335.64</ele>
        <time>2012-08-10T13:23:28Z</time>
      </trkpt>
      <trkpt lat="44.54118" lon="2.71311">
        <ele>335.64</ele>
        <time>2012-08-10T13:23:29Z</time>
      </trkpt>
      <trkpt lat="44.54119" lon="2.71309">
        <ele>335.64</ele>
        <time>2012-08-10T13:23:30Z</time>
      </trkpt>
      <trkpt lat="44.54119" lon="2.71307">
        <ele>336.12</ele>
        <time>2012-08-10T13:23:31Z</time>
      </trkpt>
      <trkpt lat="44.5412" lon="2.71304">
        <ele>336.12</ele>
        <time>2012-08-10T13:23:32Z</time>
      </trkpt>
      <trkpt lat="44.54121" lon="2.71302">
        <ele>336.12</ele>
        <time>2012-08-10T13:23:33Z</time>
      </trkpt>
      <trkpt lat="44.54121" lon="2.71299">
        <ele>336.6</ele>
        <time>2012-08-10T13:23:34Z</time>
      </trkpt>
      <trkpt lat="44.54122" lon="2.71297">
        <ele>336.6</ele>
        <time>2012-08-10T13:23:35Z</time>
      </trkpt>
      <trkpt lat="44.54123" lon="2.71295">
        <ele>336.6</ele>
        <time>2012-08-10T13:23:36Z</time>
      </trkpt>
      <trkpt lat="44.54123" lon="2.71293">
        <ele>336.12</ele>
        <time>2012-08-10T13:23:37Z</time>
      </trkpt>
      <trkpt lat="44.54123" lon="2.71291">
        <ele>336.12</ele>
        <time>2012-08-10T13:23:38Z</time>
      </trkpt>
      <trkpt lat="44.54123" lon="2.71289">
        <ele>335.64</ele>
        <time>2012-08-10T13:23:39Z</time>
      </trkpt>
      <trkpt lat="44.54124" lon="2.71287">
        <ele>335.64</ele>
        <time>2012-08-10T13:23:40Z</time>
      </trkpt>
      <trkpt lat="44.54125" lon="2.71285">
        <ele>335.64</ele>
        <time>2012-08-10T13:23:41Z</time>
      </trkpt>
      <trkpt lat="44.54138" lon="2.71252">
        <ele>341.41</ele>
        <time>2012-08-10T13:23:55Z</time>
      </trkpt>
      <trkpt lat="44.54148" lon="2.71222">
        <ele>348.13</ele>
        <time>2012-08-10T13:24:09Z</time>
      </trkpt>
      <trkpt lat="44.54154" lon="2.71187">
        <ele>349.58</ele>
        <time>2012-08-10T13:24:24Z</time>
      </trkpt>
      <trkpt lat="44.54159" lon="2.71155">
        <ele>352.94</ele>
        <time>2012-08-10T13:24:38Z</time>
      </trkpt>
      <trkpt lat="44.54161" lon="2.71125">
        <ele>355.34</ele>
        <time>2012-08-10T13:24:52Z</time>
      </trkpt>
      <trkpt lat="44.54162" lon="2.71118">
        <ele>356.31</ele>
        <time>2012-08-10T13:24:55Z</time>
      </trkpt>
      <trkpt lat="44.54162" lon="2.71116">
        <ele>356.31</ele>
        <time>2012-08-10T13:24:56Z</time>
      </trkpt>
      <trkpt lat="44.54162" lon="2.71114">
        <ele>356.79</ele>
        <time>2012-08-10T13:24:57Z</time>
      </trkpt>
      <trkpt lat="44.54162" lon="2.71112">
        <ele>356.79</ele>
        <time>2012-08-10T13:24:58Z</time>
      </trkpt>
      <trkpt lat="44.54162" lon="2.7111">
        <ele>357.27</ele>
        <time>2012-08-10T13:24:59Z</time>
      </trkpt>
      <trkpt lat="44.54163" lon="2.71108">
        <ele>357.27</ele>
        <time>2012-08-10T13:25:00Z</time>
      </trkpt>
      <trkpt lat="44.54164" lon="2.71106">
        <ele>357.75</ele>
        <time>2012-08-10T13:25:01Z</time>
      </trkpt>
      <trkpt lat="44.54165" lon="2.71104">
        <ele>358.23</ele>
        <time>2012-08-10T13:25:02Z</time>
      </trkpt>
      <trkpt lat="44.54166" lon="2.71074">
        <ele>362.55</ele>
        <time>2012-08-10T13:25:15Z</time>
      </trkpt>
      <trkpt lat="44.54165" lon="2.71059">
        <ele>363.52</ele>
        <time>2012-08-10T13:25:21Z</time>
      </trkpt>
      <trkpt lat="44.54165" lon="2.71057">
        <ele>363.52</ele>
        <time>2012-08-10T13:25:22Z</time>
      </trkpt>
      <trkpt lat="44.54165" lon="2.71055">
        <ele>364</ele>
        <time>2012-08-10T13:25:23Z</time>
      </trkpt>
      <trkpt lat="44.54165" lon="2.71053">
        <ele>364.48</ele>
        <time>2012-08-10T13:25:24Z</time>
      </trkpt>
      <trkpt lat="44.54166" lon="2.7105">
        <ele>364.96</ele>
        <time>2012-08-10T13:25:25Z</time>
      </trkpt>
      <trkpt lat="44.54167" lon="2.71046">
        <ele>365.92</ele>
        <time>2012-08-10T13:25:27Z</time>
      </trkpt>
      <trkpt lat="44.54166" lon="2.71043">
        <ele>365.92</ele>
        <time>2012-08-10T13:25:28Z</time>
      </trkpt>
      <trkpt lat="44.54167" lon="2.71041">
        <ele>365.92</ele>
        <time>2012-08-10T13:25:29Z</time>
      </trkpt>
      <trkpt lat="44.54167" lon="2.71039">
        <ele>365.92</ele>
        <time>2012-08-10T13:25:30Z</time>
      </trkpt>
      <trkpt lat="44.54168" lon="2.71037">
        <ele>366.4</ele>
        <time>2012-08-10T13:25:31Z</time>
      </trkpt>
      <trkpt lat="44.54169" lon="2.71035">
        <ele>366.88</ele>
        <time>2012-08-10T13:25:32Z</time>
      </trkpt>
      <trkpt lat="44.5417" lon="2.71033">
        <ele>366.88</ele>
        <time>2012-08-10T13:25:33Z</time>
      </trkpt>
      <trkpt lat="44.5417" lon="2.71031">
        <ele>367.36</ele>
        <time>2012-08-10T13:25:34Z</time>
      </trkpt>
      <trkpt lat="44.54171" lon="2.71028">
        <ele>367.84</ele>
        <time>2012-08-10T13:25:35Z</time>
      </trkpt>
      <trkpt lat="44.54171" lon="2.71025">
        <ele>367.84</ele>
        <time>2012-08-10T13:25:36Z</time>
      </trkpt>
      <trkpt lat="44.54171" lon="2.71023">
        <ele>367.84</ele>
        <time>2012-08-10T13:25:37Z</time>
      </trkpt>
      <trkpt lat="44.54171" lon="2.7102">
        <ele>368.32</ele>
        <time>2012-08-10T13:25:38Z</time>
      </trkpt>
      <trkpt lat="44.54171" lon="2.71018">
        <ele>368.32</ele>
        <time>2012-08-10T13:25:39Z</time>
      </trkpt>
      <trkpt lat="44.54171" lon="2.71016">
        <ele>368.32</ele>
        <time>2012-08-10T13:25:40Z</time>
      </trkpt>
      <trkpt lat="44.54172" lon="2.71008">
        <ele>369.28</ele>
        <time>2012-08-10T13:25:43Z</time>
      </trkpt>
      <trkpt lat="44.54172" lon="2.71005">
        <ele>369.28</ele>
        <time>2012-08-10T13:25:44Z</time>
      </trkpt>
      <trkpt lat="44.54173" lon="2.71003">
        <ele>369.28</ele>
        <time>2012-08-10T13:25:45Z</time>
      </trkpt>
      <trkpt lat="44.54173" lon="2.71">
        <ele>369.28</ele>
        <time>2012-08-10T13:25:46Z</time>
      </trkpt>
      <trkpt lat="44.54174" lon="2.70997">
        <ele>368.8</ele>
        <time>2012-08-10T13:25:47Z</time>
      </trkpt>
      <trkpt lat="44.54175" lon="2.70994">
        <ele>369.28</ele>
        <time>2012-08-10T13:25:48Z</time>
      </trkpt>
      <trkpt lat="44.54185" lon="2.70961">
        <ele>369.76</ele>
        <time>2012-08-10T13:26:03Z</time>
      </trkpt>
      <trkpt lat="44.54192" lon="2.70926">
        <ele>371.21</ele>
        <time>2012-08-10T13:26:19Z</time>
      </trkpt>
      <trkpt lat="44.54192" lon="2.70913">
        <ele>372.65</ele>
        <time>2012-08-10T13:26:25Z</time>
      </trkpt>
      <trkpt lat="44.54192" lon="2.70911">
        <ele>372.65</ele>
        <time>2012-08-10T13:26:26Z</time>
      </trkpt>
      <trkpt lat="44.54192" lon="2.70909">
        <ele>372.65</ele>
        <time>2012-08-10T13:26:27Z</time>
      </trkpt>
      <trkpt lat="44.54192" lon="2.70907">
        <ele>373.13</ele>
        <time>2012-08-10T13:26:28Z</time>
      </trkpt>
      <trkpt lat="44.54193" lon="2.70905">
        <ele>373.13</ele>
        <time>2012-08-10T13:26:29Z</time>
      </trkpt>
      <trkpt lat="44.54197" lon="2.70868">
        <ele>375.05</ele>
        <time>2012-08-10T13:26:45Z</time>
      </trkpt>
      <trkpt lat="44.54197" lon="2.70839">
        <ele>376.49</ele>
        <time>2012-08-10T13:26:57Z</time>
      </trkpt>
      <trkpt lat="44.542" lon="2.7081">
        <ele>377.45</ele>
        <time>2012-08-10T13:27:11Z</time>
      </trkpt>
      <trkpt lat="44.54201" lon="2.70775">
        <ele>376.01</ele>
        <time>2012-08-10T13:27:28Z</time>
      </trkpt>
      <trkpt lat="44.54206" lon="2.70741">
        <ele>373.13</ele>
        <time>2012-08-10T13:27:42Z</time>
      </trkpt>
      <trkpt lat="44.54213" lon="2.70698">
        <ele>374.09</ele>
        <time>2012-08-10T13:27:58Z</time>
      </trkpt>
      <trkpt lat="44.54219" lon="2.70662">
        <ele>375.53</ele>
        <time>2012-08-10T13:28:12Z</time>
      </trkpt>
      <trkpt lat="44.54226" lon="2.7062">
        <ele>376.01</ele>
        <time>2012-08-10T13:28:27Z</time>
      </trkpt>
      <trkpt lat="44.54238" lon="2.70556">
        <ele>375.05</ele>
        <time>2012-08-10T13:28:39Z</time>
      </trkpt>
      <trkpt lat="44.54255" lon="2.70472">
        <ele>371.69</ele>
        <time>2012-08-10T13:28:47Z</time>
      </trkpt>
      <trkpt lat="44.54255" lon="2.7046">
        <ele>371.21</ele>
        <time>2012-08-10T13:28:48Z</time>
      </trkpt>
      <trkpt lat="44.54255" lon="2.70448">
        <ele>370.73</ele>
        <time>2012-08-10T13:28:49Z</time>
      </trkpt>
      <trkpt lat="44.54248" lon="2.70345">
        <ele>367.84</ele>
        <time>2012-08-10T13:28:59Z</time>
      </trkpt>
      <trkpt lat="44.54247" lon="2.70339">
        <ele>367.84</ele>
        <time>2012-08-10T13:29:00Z</time>
      </trkpt>
      <trkpt lat="44.54245" lon="2.70335">
        <ele>367.84</ele>
        <time>2012-08-10T13:29:01Z</time>
      </trkpt>
      <trkpt lat="44.54242" lon="2.70333">
        <ele>368.32</ele>
        <time>2012-08-10T13:29:02Z</time>
      </trkpt>
      <trkpt lat="44.5424" lon="2.70332">
        <ele>368.32</ele>
        <time>2012-08-10T13:29:03Z</time>
      </trkpt>
      <trkpt lat="44.54238" lon="2.70331">
        <ele>368.8</ele>
        <time>2012-08-10T13:29:04Z</time>
      </trkpt>
      <trkpt lat="44.54236" lon="2.7033">
        <ele>369.28</ele>
        <time>2012-08-10T13:29:05Z</time>
      </trkpt>
      <trkpt lat="44.54234" lon="2.70329">
        <ele>369.28</ele>
        <time>2012-08-10T13:29:06Z</time>
      </trkpt>
      <trkpt lat="44.54227" lon="2.70326">
        <ele>371.21</ele>
        <time>2012-08-10T13:29:10Z</time>
      </trkpt>
      <trkpt lat="44.54219" lon="2.70323">
        <ele>371.69</ele>
        <time>2012-08-10T13:29:15Z</time>
      </trkpt>
      <trkpt lat="44.54217" lon="2.70323">
        <ele>371.69</ele>
        <time>2012-08-10T13:29:16Z</time>
      </trkpt>
      <trkpt lat="44.54216" lon="2.70323">
        <ele>371.69</ele>
        <time>2012-08-10T13:29:17Z</time>
      </trkpt>
      <trkpt lat="44.54214" lon="2.70323">
        <ele>372.17</ele>
        <time>2012-08-10T13:29:18Z</time>
      </trkpt>
      <trkpt lat="44.54213" lon="2.70323">
        <ele>372.17</ele>
        <time>2012-08-10T13:29:19Z</time>
      </trkpt>
      <trkpt lat="44.54211" lon="2.70323">
        <ele>372.65</ele>
        <time>2012-08-10T13:29:20Z</time>
      </trkpt>
      <trkpt lat="44.54201" lon="2.70325">
        <ele>374.57</ele>
        <time>2012-08-10T13:29:27Z</time>
      </trkpt>
      <trkpt lat="44.54199" lon="2.70326">
        <ele>374.57</ele>
        <time>2012-08-10T13:29:28Z</time>
      </trkpt>
      <trkpt lat="44.54198" lon="2.70326">
        <ele>374.57</ele>
        <time>2012-08-10T13:29:29Z</time>
      </trkpt>
      <trkpt lat="44.54197" lon="2.70326">
        <ele>374.57</ele>
        <time>2012-08-10T13:29:30Z</time>
      </trkpt>
      <trkpt lat="44.54196" lon="2.70326">
        <ele>375.05</ele>
        <time>2012-08-10T13:29:31Z</time>
      </trkpt>
      <trkpt lat="44.54194" lon="2.70327">
        <ele>375.05</ele>
        <time>2012-08-10T13:29:32Z</time>
      </trkpt>
      <trkpt lat="44.54186" lon="2.70335">
        <ele>376.97</ele>
        <time>2012-08-10T13:29:41Z</time>
      </trkpt>
      <trkpt lat="44.54215" lon="2.70322">
        <ele>375.05</ele>
        <time>2012-08-10T13:29:54Z</time>
      </trkpt>
      <trkpt lat="44.5424" lon="2.70335">
        <ele>370.73</ele>
        <time>2012-08-10T13:30:04Z</time>
      </trkpt>
      <trkpt lat="44.54242" lon="2.70336">
        <ele>370.24</ele>
        <time>2012-08-10T13:30:05Z</time>
      </trkpt>
      <trkpt lat="44.54253" lon="2.70324">
        <ele>368.32</ele>
        <time>2012-08-10T13:30:10Z</time>
      </trkpt>
      <trkpt lat="44.54255" lon="2.70318">
        <ele>367.84</ele>
        <time>2012-08-10T13:30:11Z</time>
      </trkpt>
      <trkpt lat="44.54269" lon="2.70276">
        <ele>366.4</ele>
        <time>2012-08-10T13:30:17Z</time>
      </trkpt>
      <trkpt lat="44.54276" lon="2.70237">
        <ele>364.96</ele>
        <time>2012-08-10T13:30:21Z</time>
      </trkpt>
      <trkpt lat="44.54277" lon="2.70225">
        <ele>364.48</ele>
        <time>2012-08-10T13:30:22Z</time>
      </trkpt>
      <trkpt lat="44.54262" lon="2.70085">
        <ele>360.63</ele>
        <time>2012-08-10T13:30:33Z</time>
      </trkpt>
      <trkpt lat="44.54229" lon="2.69978">
        <ele>355.34</ele>
        <time>2012-08-10T13:30:44Z</time>
      </trkpt>
      <trkpt lat="44.54223" lon="2.6997">
        <ele>354.86</ele>
        <time>2012-08-10T13:30:45Z</time>
      </trkpt>
      <trkpt lat="44.54216" lon="2.69963">
        <ele>353.9</ele>
        <time>2012-08-10T13:30:46Z</time>
      </trkpt>
      <trkpt lat="44.54209" lon="2.69957">
        <ele>353.42</ele>
        <time>2012-08-10T13:30:47Z</time>
      </trkpt>
      <trkpt lat="44.54201" lon="2.69951">
        <ele>352.94</ele>
        <time>2012-08-10T13:30:48Z</time>
      </trkpt>
      <trkpt lat="44.54193" lon="2.69946">
        <ele>351.98</ele>
        <time>2012-08-10T13:30:49Z</time>
      </trkpt>
      <trkpt lat="44.54154" lon="2.69926">
        <ele>347.65</ele>
        <time>2012-08-10T13:30:54Z</time>
      </trkpt>
      <trkpt lat="44.54146" lon="2.6992">
        <ele>346.69</ele>
        <time>2012-08-10T13:30:55Z</time>
      </trkpt>
      <trkpt lat="44.5414" lon="2.69911">
        <ele>345.73</ele>
        <time>2012-08-10T13:30:56Z</time>
      </trkpt>
      <trkpt lat="44.54136" lon="2.69901">
        <ele>344.77</ele>
        <time>2012-08-10T13:30:57Z</time>
      </trkpt>
      <trkpt lat="44.54134" lon="2.6989">
        <ele>343.81</ele>
        <time>2012-08-10T13:30:58Z</time>
      </trkpt>
      <trkpt lat="44.54134" lon="2.69881">
        <ele>343.33</ele>
        <time>2012-08-10T13:30:59Z</time>
      </trkpt>
      <trkpt lat="44.54135" lon="2.69872">
        <ele>342.37</ele>
        <time>2012-08-10T13:31:00Z</time>
      </trkpt>
      <trkpt lat="44.54136" lon="2.69864">
        <ele>341.89</ele>
        <time>2012-08-10T13:31:01Z</time>
      </trkpt>
      <trkpt lat="44.54138" lon="2.69857">
        <ele>340.92</ele>
        <time>2012-08-10T13:31:02Z</time>
      </trkpt>
      <trkpt lat="44.5414" lon="2.69851">
        <ele>340.44</ele>
        <time>2012-08-10T13:31:03Z</time>
      </trkpt>
      <trkpt lat="44.54157" lon="2.69814">
        <ele>338.52</ele>
        <time>2012-08-10T13:31:14Z</time>
      </trkpt>
      <trkpt lat="44.54177" lon="2.6977">
        <ele>339.96</ele>
        <time>2012-08-10T13:31:27Z</time>
      </trkpt>
      <trkpt lat="44.54201" lon="2.69717">
        <ele>342.37</ele>
        <time>2012-08-10T13:31:43Z</time>
      </trkpt>
      <trkpt lat="44.54219" lon="2.69663">
        <ele>344.77</ele>
        <time>2012-08-10T13:31:59Z</time>
      </trkpt>
      <trkpt lat="44.5423" lon="2.696">
        <ele>345.25</ele>
        <time>2012-08-10T13:32:15Z</time>
      </trkpt>
      <trkpt lat="44.5424" lon="2.69531">
        <ele>345.73</ele>
        <time>2012-08-10T13:32:32Z</time>
      </trkpt>
      <trkpt lat="44.54254" lon="2.6945">
        <ele>348.13</ele>
        <time>2012-08-10T13:32:54Z</time>
      </trkpt>
      <trkpt lat="44.54249" lon="2.69391">
        <ele>349.1</ele>
        <time>2012-08-10T13:33:08Z</time>
      </trkpt>
      <trkpt lat="44.54241" lon="2.6935">
        <ele>349.1</ele>
        <time>2012-08-10T13:33:16Z</time>
      </trkpt>
      <trkpt lat="44.54218" lon="2.69233">
        <ele>347.17</ele>
        <time>2012-08-10T13:33:33Z</time>
      </trkpt>
      <trkpt lat="44.54216" lon="2.69119">
        <ele>345.73</ele>
        <time>2012-08-10T13:33:47Z</time>
      </trkpt>
      <trkpt lat="44.54212" lon="2.68959">
        <ele>343.33</ele>
        <time>2012-08-10T13:34:04Z</time>
      </trkpt>
      <trkpt lat="44.54197" lon="2.68841">
        <ele>339.48</ele>
        <time>2012-08-10T13:34:16Z</time>
      </trkpt>
      <trkpt lat="44.54197" lon="2.68829">
        <ele>339.48</ele>
        <time>2012-08-10T13:34:17Z</time>
      </trkpt>
      <trkpt lat="44.54197" lon="2.68817">
        <ele>339.48</ele>
        <time>2012-08-10T13:34:18Z</time>
      </trkpt>
      <trkpt lat="44.54199" lon="2.68804">
        <ele>339</ele>
        <time>2012-08-10T13:34:19Z</time>
      </trkpt>
      <trkpt lat="44.54201" lon="2.68791">
        <ele>339</ele>
        <time>2012-08-10T13:34:20Z</time>
      </trkpt>
      <trkpt lat="44.54205" lon="2.68779">
        <ele>338.52</ele>
        <time>2012-08-10T13:34:21Z</time>
      </trkpt>
      <trkpt lat="44.5421" lon="2.68767">
        <ele>338.04</ele>
        <time>2012-08-10T13:34:22Z</time>
      </trkpt>
      <trkpt lat="44.54215" lon="2.68756">
        <ele>338.04</ele>
        <time>2012-08-10T13:34:23Z</time>
      </trkpt>
      <trkpt lat="44.5422" lon="2.68747">
        <ele>338.04</ele>
        <time>2012-08-10T13:34:24Z</time>
      </trkpt>
      <trkpt lat="44.54226" lon="2.68741">
        <ele>338.04</ele>
        <time>2012-08-10T13:34:25Z</time>
      </trkpt>
      <trkpt lat="44.54254" lon="2.68703">
        <ele>339.96</ele>
        <time>2012-08-10T13:34:34Z</time>
      </trkpt>
      <trkpt lat="44.54263" lon="2.68674">
        <ele>340.92</ele>
        <time>2012-08-10T13:34:40Z</time>
      </trkpt>
      <trkpt lat="44.54266" lon="2.68582">
        <ele>339.48</ele>
        <time>2012-08-10T13:34:56Z</time>
      </trkpt>
      <trkpt lat="44.54271" lon="2.68511">
        <ele>338.04</ele>
        <time>2012-08-10T13:35:10Z</time>
      </trkpt>
      <trkpt lat="44.54305" lon="2.68458">
        <ele>337.56</ele>
        <time>2012-08-10T13:35:24Z</time>
      </trkpt>
      <trkpt lat="44.54343" lon="2.68369">
        <ele>334.2</ele>
        <time>2012-08-10T13:35:36Z</time>
      </trkpt>
      <trkpt lat="44.54366" lon="2.683">
        <ele>332.27</ele>
        <time>2012-08-10T13:35:43Z</time>
      </trkpt>
      <trkpt lat="44.54377" lon="2.68244">
        <ele>330.83</ele>
        <time>2012-08-10T13:35:48Z</time>
      </trkpt>
      <trkpt lat="44.54381" lon="2.68233">
        <ele>329.87</ele>
        <time>2012-08-10T13:35:49Z</time>
      </trkpt>
      <trkpt lat="44.54386" lon="2.68222">
        <ele>329.39</ele>
        <time>2012-08-10T13:35:50Z</time>
      </trkpt>
      <trkpt lat="44.54391" lon="2.68213">
        <ele>329.39</ele>
        <time>2012-08-10T13:35:51Z</time>
      </trkpt>
      <trkpt lat="44.54396" lon="2.68204">
        <ele>328.43</ele>
        <time>2012-08-10T13:35:52Z</time>
      </trkpt>
      <trkpt lat="44.54402" lon="2.68197">
        <ele>327.95</ele>
        <time>2012-08-10T13:35:53Z</time>
      </trkpt>
      <trkpt lat="44.54408" lon="2.6819">
        <ele>327.95</ele>
        <time>2012-08-10T13:35:54Z</time>
      </trkpt>
      <trkpt lat="44.54414" lon="2.68185">
        <ele>327.47</ele>
        <time>2012-08-10T13:35:55Z</time>
      </trkpt>
      <trkpt lat="44.5442" lon="2.68181">
        <ele>326.99</ele>
        <time>2012-08-10T13:35:56Z</time>
      </trkpt>
      <trkpt lat="44.54427" lon="2.68179">
        <ele>326.99</ele>
        <time>2012-08-10T13:35:57Z</time>
      </trkpt>
      <trkpt lat="44.54433" lon="2.68178">
        <ele>326.99</ele>
        <time>2012-08-10T13:35:58Z</time>
      </trkpt>
      <trkpt lat="44.54439" lon="2.68178">
        <ele>326.99</ele>
        <time>2012-08-10T13:35:59Z</time>
      </trkpt>
      <trkpt lat="44.54493" lon="2.68173">
        <ele>328.43</ele>
        <time>2012-08-10T13:36:11Z</time>
      </trkpt>
      <trkpt lat="44.54544" lon="2.68162">
        <ele>328.43</ele>
        <time>2012-08-10T13:36:27Z</time>
      </trkpt>
      <trkpt lat="44.54584" lon="2.68171">
        <ele>328.91</ele>
        <time>2012-08-10T13:36:40Z</time>
      </trkpt>
      <trkpt lat="44.54624" lon="2.68192">
        <ele>329.39</ele>
        <time>2012-08-10T13:36:53Z</time>
      </trkpt>
      <trkpt lat="44.54647" lon="2.68255">
        <ele>330.35</ele>
        <time>2012-08-10T13:37:07Z</time>
      </trkpt>
      <trkpt lat="44.54681" lon="2.68323">
        <ele>334.68</ele>
        <time>2012-08-10T13:37:23Z</time>
      </trkpt>
      <trkpt lat="44.54697" lon="2.68348">
        <ele>334.68</ele>
        <time>2012-08-10T13:37:28Z</time>
      </trkpt>
      <trkpt lat="44.54707" lon="2.68374">
        <ele>334.2</ele>
        <time>2012-08-10T13:37:32Z</time>
      </trkpt>
      <trkpt lat="44.54718" lon="2.68422">
        <ele>334.2</ele>
        <time>2012-08-10T13:37:39Z</time>
      </trkpt>
      <trkpt lat="44.54729" lon="2.68475">
        <ele>333.71</ele>
        <time>2012-08-10T13:37:48Z</time>
      </trkpt>
      <trkpt lat="44.54735" lon="2.68499">
        <ele>333.23</ele>
        <time>2012-08-10T13:37:52Z</time>
      </trkpt>
      <trkpt lat="44.54737" lon="2.68505">
        <ele>333.23</ele>
        <time>2012-08-10T13:37:53Z</time>
      </trkpt>
      <trkpt lat="44.54764" lon="2.68592">
        <ele>334.2</ele>
        <time>2012-08-10T13:38:06Z</time>
      </trkpt>
      <trkpt lat="44.54796" lon="2.68679">
        <ele>334.68</ele>
        <time>2012-08-10T13:38:19Z</time>
      </trkpt>
      <trkpt lat="44.54809" lon="2.68702">
        <ele>334.2</ele>
        <time>2012-08-10T13:38:23Z</time>
      </trkpt>
      <trkpt lat="44.54814" lon="2.68713">
        <ele>334.68</ele>
        <time>2012-08-10T13:38:25Z</time>
      </trkpt>
      <trkpt lat="44.54833" lon="2.68738">
        <ele>334.68</ele>
        <time>2012-08-10T13:38:30Z</time>
      </trkpt>
      <trkpt lat="44.54837" lon="2.68742">
        <ele>334.68</ele>
        <time>2012-08-10T13:38:31Z</time>
      </trkpt>
      <trkpt lat="44.54841" lon="2.68746">
        <ele>334.68</ele>
        <time>2012-08-10T13:38:32Z</time>
      </trkpt>
      <trkpt lat="44.54846" lon="2.6875">
        <ele>334.68</ele>
        <time>2012-08-10T13:38:33Z</time>
      </trkpt>
      <trkpt lat="44.5485" lon="2.68753">
        <ele>334.68</ele>
        <time>2012-08-10T13:38:34Z</time>
      </trkpt>
      <trkpt lat="44.54916" lon="2.68783">
        <ele>334.68</ele>
        <time>2012-08-10T13:38:48Z</time>
      </trkpt>
      <trkpt lat="44.54921" lon="2.68782">
        <ele>334.68</ele>
        <time>2012-08-10T13:38:49Z</time>
      </trkpt>
      <trkpt lat="44.54926" lon="2.68779">
        <ele>334.68</ele>
        <time>2012-08-10T13:38:50Z</time>
      </trkpt>
      <trkpt lat="44.54935" lon="2.6877">
        <ele>334.2</ele>
        <time>2012-08-10T13:38:52Z</time>
      </trkpt>
      <trkpt lat="44.54939" lon="2.68765">
        <ele>334.2</ele>
        <time>2012-08-10T13:38:53Z</time>
      </trkpt>
      <trkpt lat="44.54943" lon="2.6876">
        <ele>334.2</ele>
        <time>2012-08-10T13:38:54Z</time>
      </trkpt>
      <trkpt lat="44.54946" lon="2.68754">
        <ele>334.2</ele>
        <time>2012-08-10T13:38:55Z</time>
      </trkpt>
      <trkpt lat="44.54949" lon="2.68748">
        <ele>334.2</ele>
        <time>2012-08-10T13:38:56Z</time>
      </trkpt>
      <trkpt lat="44.54951" lon="2.68741">
        <ele>334.2</ele>
        <time>2012-08-10T13:38:57Z</time>
      </trkpt>
      <trkpt lat="44.54953" lon="2.68734">
        <ele>334.2</ele>
        <time>2012-08-10T13:38:58Z</time>
      </trkpt>
      <trkpt lat="44.54955" lon="2.68727">
        <ele>334.68</ele>
        <time>2012-08-10T13:38:59Z</time>
      </trkpt>
      <trkpt lat="44.54956" lon="2.6872">
        <ele>334.68</ele>
        <time>2012-08-10T13:39:00Z</time>
      </trkpt>
      <trkpt lat="44.54956" lon="2.68713">
        <ele>334.68</ele>
        <time>2012-08-10T13:39:01Z</time>
      </trkpt>
      <trkpt lat="44.54956" lon="2.68704">
        <ele>335.16</ele>
        <time>2012-08-10T13:39:02Z</time>
      </trkpt>
      <trkpt lat="44.54951" lon="2.68664">
        <ele>335.16</ele>
        <time>2012-08-10T13:39:06Z</time>
      </trkpt>
      <trkpt lat="44.54946" lon="2.68637">
        <ele>335.16</ele>
        <time>2012-08-10T13:39:09Z</time>
      </trkpt>
      <trkpt lat="44.54946" lon="2.68628">
        <ele>334.68</ele>
        <time>2012-08-10T13:39:10Z</time>
      </trkpt>
      <trkpt lat="44.54946" lon="2.68612">
        <ele>334.2</ele>
        <time>2012-08-10T13:39:12Z</time>
      </trkpt>
      <trkpt lat="44.54949" lon="2.68566">
        <ele>334.2</ele>
        <time>2012-08-10T13:39:18Z</time>
      </trkpt>
      <trkpt lat="44.54938" lon="2.68462">
        <ele>333.71</ele>
        <time>2012-08-10T13:39:31Z</time>
      </trkpt>
      <trkpt lat="44.54927" lon="2.68369">
        <ele>336.12</ele>
        <time>2012-08-10T13:39:44Z</time>
      </trkpt>
      <trkpt lat="44.54925" lon="2.68318">
        <ele>337.56</ele>
        <time>2012-08-10T13:39:51Z</time>
      </trkpt>
      <trkpt lat="44.54924" lon="2.68312">
        <ele>337.56</ele>
        <time>2012-08-10T13:39:52Z</time>
      </trkpt>
      <trkpt lat="44.54923" lon="2.68299">
        <ele>338.04</ele>
        <time>2012-08-10T13:39:54Z</time>
      </trkpt>
      <trkpt lat="44.54922" lon="2.68293">
        <ele>338.04</ele>
        <time>2012-08-10T13:39:55Z</time>
      </trkpt>
      <trkpt lat="44.54921" lon="2.68287">
        <ele>338.04</ele>
        <time>2012-08-10T13:39:56Z</time>
      </trkpt>
      <trkpt lat="44.54919" lon="2.68281">
        <ele>338.04</ele>
        <time>2012-08-10T13:39:57Z</time>
      </trkpt>
      <trkpt lat="44.54917" lon="2.68275">
        <ele>337.56</ele>
        <time>2012-08-10T13:39:58Z</time>
      </trkpt>
      <trkpt lat="44.54897" lon="2.68227">
        <ele>337.08</ele>
        <time>2012-08-10T13:40:06Z</time>
      </trkpt>
      <trkpt lat="44.54869" lon="2.68122">
        <ele>339</ele>
        <time>2012-08-10T13:40:20Z</time>
      </trkpt>
      <trkpt lat="44.54864" lon="2.68089">
        <ele>339.48</ele>
        <time>2012-08-10T13:40:24Z</time>
      </trkpt>
      <trkpt lat="44.54863" lon="2.68074">
        <ele>339.48</ele>
        <time>2012-08-10T13:40:26Z</time>
      </trkpt>
      <trkpt lat="44.54863" lon="2.68066">
        <ele>339.96</ele>
        <time>2012-08-10T13:40:27Z</time>
      </trkpt>
      <trkpt lat="44.54864" lon="2.68059">
        <ele>339.96</ele>
        <time>2012-08-10T13:40:28Z</time>
      </trkpt>
      <trkpt lat="44.5487" lon="2.6802">
        <ele>340.44</ele>
        <time>2012-08-10T13:40:33Z</time>
      </trkpt>
      <trkpt lat="44.54878" lon="2.67973">
        <ele>339.96</ele>
        <time>2012-08-10T13:40:39Z</time>
      </trkpt>
      <trkpt lat="44.54913" lon="2.67884">
        <ele>338.04</ele>
        <time>2012-08-10T13:40:51Z</time>
      </trkpt>
      <trkpt lat="44.54917" lon="2.67877">
        <ele>337.56</ele>
        <time>2012-08-10T13:40:52Z</time>
      </trkpt>
      <trkpt lat="44.54974" lon="2.67811">
        <ele>330.83</ele>
        <time>2012-08-10T13:41:05Z</time>
      </trkpt>
      <trkpt lat="44.55008" lon="2.6778">
        <ele>328.43</ele>
        <time>2012-08-10T13:41:12Z</time>
      </trkpt>
      <trkpt lat="44.55031" lon="2.6775">
        <ele>327.47</ele>
        <time>2012-08-10T13:41:17Z</time>
      </trkpt>
      <trkpt lat="44.55036" lon="2.67744">
        <ele>327.95</ele>
        <time>2012-08-10T13:41:18Z</time>
      </trkpt>
      <trkpt lat="44.5507" lon="2.67694">
        <ele>328.43</ele>
        <time>2012-08-10T13:41:27Z</time>
      </trkpt>
      <trkpt lat="44.55074" lon="2.67689">
        <ele>328.43</ele>
        <time>2012-08-10T13:41:28Z</time>
      </trkpt>
      <trkpt lat="44.55081" lon="2.67679">
        <ele>328.43</ele>
        <time>2012-08-10T13:41:30Z</time>
      </trkpt>
      <trkpt lat="44.55096" lon="2.67634">
        <ele>326.5</ele>
        <time>2012-08-10T13:41:37Z</time>
      </trkpt>
      <trkpt lat="44.5513" lon="2.67526">
        <ele>327.47</ele>
        <time>2012-08-10T13:41:53Z</time>
      </trkpt>
      <trkpt lat="44.55183" lon="2.67458">
        <ele>326.99</ele>
        <time>2012-08-10T13:42:06Z</time>
      </trkpt>
      <trkpt lat="44.55186" lon="2.67455">
        <ele>326.5</ele>
        <time>2012-08-10T13:42:07Z</time>
      </trkpt>
      <trkpt lat="44.5519" lon="2.67452">
        <ele>326.5</ele>
        <time>2012-08-10T13:42:08Z</time>
      </trkpt>
      <trkpt lat="44.552" lon="2.67441">
        <ele>326.02</ele>
        <time>2012-08-10T13:42:11Z</time>
      </trkpt>
      <trkpt lat="44.55203" lon="2.67437">
        <ele>326.02</ele>
        <time>2012-08-10T13:42:12Z</time>
      </trkpt>
      <trkpt lat="44.55206" lon="2.67432">
        <ele>325.54</ele>
        <time>2012-08-10T13:42:13Z</time>
      </trkpt>
      <trkpt lat="44.55225" lon="2.67402">
        <ele>325.54</ele>
        <time>2012-08-10T13:42:19Z</time>
      </trkpt>
      <trkpt lat="44.55238" lon="2.67374">
        <ele>325.06</ele>
        <time>2012-08-10T13:42:24Z</time>
      </trkpt>
      <trkpt lat="44.55239" lon="2.67368">
        <ele>325.06</ele>
        <time>2012-08-10T13:42:25Z</time>
      </trkpt>
      <trkpt lat="44.55241" lon="2.67362">
        <ele>324.58</ele>
        <time>2012-08-10T13:42:26Z</time>
      </trkpt>
      <trkpt lat="44.55242" lon="2.67355">
        <ele>324.58</ele>
        <time>2012-08-10T13:42:27Z</time>
      </trkpt>
      <trkpt lat="44.55243" lon="2.67349">
        <ele>324.1</ele>
        <time>2012-08-10T13:42:28Z</time>
      </trkpt>
      <trkpt lat="44.55246" lon="2.67306">
        <ele>323.14</ele>
        <time>2012-08-10T13:42:34Z</time>
      </trkpt>
      <trkpt lat="44.55244" lon="2.67223">
        <ele>323.14</ele>
        <time>2012-08-10T13:42:48Z</time>
      </trkpt>
      <trkpt lat="44.55246" lon="2.67216">
        <ele>323.14</ele>
        <time>2012-08-10T13:42:50Z</time>
      </trkpt>
      <trkpt lat="44.55248" lon="2.67213">
        <ele>323.62</ele>
        <time>2012-08-10T13:42:51Z</time>
      </trkpt>
      <trkpt lat="44.5525" lon="2.67211">
        <ele>323.62</ele>
        <time>2012-08-10T13:42:52Z</time>
      </trkpt>
      <trkpt lat="44.55252" lon="2.67208">
        <ele>324.1</ele>
        <time>2012-08-10T13:42:53Z</time>
      </trkpt>
      <trkpt lat="44.55254" lon="2.67206">
        <ele>324.1</ele>
        <time>2012-08-10T13:42:54Z</time>
      </trkpt>
      <trkpt lat="44.55257" lon="2.67203">
        <ele>324.58</ele>
        <time>2012-08-10T13:42:55Z</time>
      </trkpt>
      <trkpt lat="44.5526" lon="2.67201">
        <ele>325.06</ele>
        <time>2012-08-10T13:42:56Z</time>
      </trkpt>
      <trkpt lat="44.55263" lon="2.67201">
        <ele>325.06</ele>
        <time>2012-08-10T13:42:57Z</time>
      </trkpt>
      <trkpt lat="44.55267" lon="2.672">
        <ele>325.54</ele>
        <time>2012-08-10T13:42:58Z</time>
      </trkpt>
      <trkpt lat="44.5527" lon="2.67201">
        <ele>325.06</ele>
        <time>2012-08-10T13:42:59Z</time>
      </trkpt>
      <trkpt lat="44.55274" lon="2.67201">
        <ele>324.58</ele>
        <time>2012-08-10T13:43:00Z</time>
      </trkpt>
      <trkpt lat="44.55314" lon="2.67191">
        <ele>322.18</ele>
        <time>2012-08-10T13:43:11Z</time>
      </trkpt>
      <trkpt lat="44.55342" lon="2.67194">
        <ele>319.78</ele>
        <time>2012-08-10T13:43:22Z</time>
      </trkpt>
      <trkpt lat="44.55345" lon="2.672">
        <ele>320.26</ele>
        <time>2012-08-10T13:43:24Z</time>
      </trkpt>
      <trkpt lat="44.55345" lon="2.67204">
        <ele>320.26</ele>
        <time>2012-08-10T13:43:25Z</time>
      </trkpt>
      <trkpt lat="44.55345" lon="2.67208">
        <ele>320.74</ele>
        <time>2012-08-10T13:43:26Z</time>
      </trkpt>
      <trkpt lat="44.55345" lon="2.67212">
        <ele>320.74</ele>
        <time>2012-08-10T13:43:27Z</time>
      </trkpt>
      <trkpt lat="44.55345" lon="2.67216">
        <ele>321.22</ele>
        <time>2012-08-10T13:43:28Z</time>
      </trkpt>
      <trkpt lat="44.55347" lon="2.67219">
        <ele>321.7</ele>
        <time>2012-08-10T13:43:29Z</time>
      </trkpt>
      <trkpt lat="44.55349" lon="2.67222">
        <ele>321.7</ele>
        <time>2012-08-10T13:43:30Z</time>
      </trkpt>
      <trkpt lat="44.55352" lon="2.67224">
        <ele>321.7</ele>
        <time>2012-08-10T13:43:31Z</time>
      </trkpt>
      <trkpt lat="44.55354" lon="2.67225">
        <ele>321.7</ele>
        <time>2012-08-10T13:43:32Z</time>
      </trkpt>
      <trkpt lat="44.55356" lon="2.67224">
        <ele>321.7</ele>
        <time>2012-08-10T13:43:33Z</time>
      </trkpt>
      <trkpt lat="44.55358" lon="2.67223">
        <ele>321.7</ele>
        <time>2012-08-10T13:43:34Z</time>
      </trkpt>
      <trkpt lat="44.55372" lon="2.67219">
        <ele>321.7</ele>
        <time>2012-08-10T13:43:45Z</time>
      </trkpt>
      <trkpt lat="44.554" lon="2.67212">
        <ele>321.7</ele>
        <time>2012-08-10T13:44:03Z</time>
      </trkpt>
      <trkpt lat="44.55408" lon="2.67222">
        <ele>322.18</ele>
        <time>2012-08-10T13:44:12Z</time>
      </trkpt>
      <trkpt lat="44.55411" lon="2.67221">
        <ele>322.18</ele>
        <time>2012-08-10T13:44:13Z</time>
      </trkpt>
      <trkpt lat="44.55413" lon="2.6722">
        <ele>322.18</ele>
        <time>2012-08-10T13:44:14Z</time>
      </trkpt>
      <trkpt lat="44.55438" lon="2.67215">
        <ele>321.7</ele>
        <time>2012-08-10T13:44:28Z</time>
      </trkpt>
      <trkpt lat="44.5544" lon="2.67214">
        <ele>321.7</ele>
        <time>2012-08-10T13:44:29Z</time>
      </trkpt>
      <trkpt lat="44.55469" lon="2.67199">
        <ele>322.66</ele>
        <time>2012-08-10T13:44:41Z</time>
      </trkpt>
      <trkpt lat="44.55471" lon="2.67203">
        <ele>322.66</ele>
        <time>2012-08-10T13:44:45Z</time>
      </trkpt>
      <trkpt lat="44.55473" lon="2.67208">
        <ele>322.66</ele>
        <time>2012-08-10T13:45:03Z</time>
      </trkpt>
      <trkpt lat="44.55474" lon="2.67202">
        <ele>322.66</ele>
        <time>2012-08-10T13:45:24Z</time>
      </trkpt>
      <trkpt lat="44.55474" lon="2.67199">
        <ele>322.66</ele>
        <time>2012-08-10T13:45:49Z</time>
      </trkpt>
      <trkpt lat="44.55474" lon="2.67194">
        <ele>323.14</ele>
        <time>2012-08-10T13:46:14Z</time>
      </trkpt>
      <trkpt lat="44.55478" lon="2.67188">
        <ele>323.14</ele>
        <time>2012-08-10T13:46:36Z</time>
      </trkpt>
      <trkpt lat="44.55477" lon="2.67192">
        <ele>322.66</ele>
        <time>2012-08-10T13:47:02Z</time>
      </trkpt>
      <trkpt lat="44.5547" lon="2.67196">
        <ele>322.66</ele>
        <time>2012-08-10T13:47:27Z</time>
      </trkpt>
      <trkpt lat="44.55477" lon="2.67208">
        <ele>322.66</ele>
        <time>2012-08-10T13:47:52Z</time>
      </trkpt>
      <trkpt lat="44.55479" lon="2.67211">
        <ele>323.14</ele>
        <time>2012-08-10T13:48:09Z</time>
      </trkpt>
      <trkpt lat="44.5548" lon="2.67221">
        <ele>324.58</ele>
        <time>2012-08-10T13:48:29Z</time>
      </trkpt>
      <trkpt lat="44.55476" lon="2.67231">
        <ele>331.31</ele>
        <time>2012-08-10T13:48:49Z</time>
      </trkpt>
      <trkpt lat="44.55475" lon="2.67239">
        <ele>335.64</ele>
        <time>2012-08-10T13:49:04Z</time>
      </trkpt>
      <trkpt lat="44.55473" lon="2.67243">
        <ele>333.71</ele>
        <time>2012-08-10T13:49:07Z</time>
      </trkpt>
      <trkpt lat="44.55472" lon="2.67243">
        <ele>333.23</ele>
        <time>2012-08-10T13:49:08Z</time>
      </trkpt>
      <trkpt lat="44.55467" lon="2.67241">
        <ele>330.83</ele>
        <time>2012-08-10T13:49:12Z</time>
      </trkpt>
      <trkpt lat="44.55464" lon="2.67241">
        <ele>330.35</ele>
        <time>2012-08-10T13:49:15Z</time>
      </trkpt>
      <trkpt lat="44.55459" lon="2.67249">
        <ele>332.27</ele>
        <time>2012-08-10T13:49:28Z</time>
      </trkpt>
      <trkpt lat="44.55462" lon="2.67245">
        <ele>332.75</ele>
        <time>2012-08-10T13:49:34Z</time>
      </trkpt>
      <trkpt lat="44.55467" lon="2.67241">
        <ele>331.31</ele>
        <time>2012-08-10T13:49:45Z</time>
      </trkpt>
      <trkpt lat="44.5547" lon="2.6724">
        <ele>332.27</ele>
        <time>2012-08-10T13:49:55Z</time>
      </trkpt>
      <trkpt lat="44.55474" lon="2.67238">
        <ele>332.27</ele>
        <time>2012-08-10T13:49:58Z</time>
      </trkpt>
      <trkpt lat="44.55479" lon="2.67229">
        <ele>333.23</ele>
        <time>2012-08-10T13:50:09Z</time>
      </trkpt>
      <trkpt lat="44.55478" lon="2.67223">
        <ele>332.75</ele>
        <time>2012-08-10T13:50:14Z</time>
      </trkpt>
      <trkpt lat="44.55488" lon="2.67216">
        <ele>332.75</ele>
        <time>2012-08-10T13:50:29Z</time>
      </trkpt>
      <trkpt lat="44.55499" lon="2.67221">
        <ele>332.27</ele>
        <time>2012-08-10T13:50:45Z</time>
      </trkpt>
      <trkpt lat="44.55509" lon="2.6722">
        <ele>330.35</ele>
        <time>2012-08-10T13:51:01Z</time>
      </trkpt>
      <trkpt lat="44.55509" lon="2.67218">
        <ele>330.35</ele>
        <time>2012-08-10T13:51:28Z</time>
      </trkpt>
      <trkpt lat="44.55507" lon="2.67213">
        <ele>330.83</ele>
        <time>2012-08-10T13:51:52Z</time>
      </trkpt>
      <trkpt lat="44.55507" lon="2.67212">
        <ele>331.31</ele>
        <time>2012-08-10T13:52:17Z</time>
      </trkpt>
      <trkpt lat="44.55508" lon="2.67208">
        <ele>330.83</ele>
        <time>2012-08-10T13:52:41Z</time>
      </trkpt>
      <trkpt lat="44.55507" lon="2.67204">
        <ele>330.83</ele>
        <time>2012-08-10T13:53:01Z</time>
      </trkpt>
      <trkpt lat="44.55505" lon="2.67194">
        <ele>330.83</ele>
        <time>2012-08-10T13:53:14Z</time>
      </trkpt>
      <trkpt lat="44.55501" lon="2.67182">
        <ele>330.35</ele>
        <time>2012-08-10T13:53:36Z</time>
      </trkpt>
      <trkpt lat="44.55503" lon="2.67192">
        <ele>330.35</ele>
        <time>2012-08-10T13:53:56Z</time>
      </trkpt>
      <trkpt lat="44.55504" lon="2.67194">
        <ele>330.35</ele>
        <time>2012-08-10T13:53:58Z</time>
      </trkpt>
      <trkpt lat="44.55509" lon="2.67213">
        <ele>329.87</ele>
        <time>2012-08-10T13:54:23Z</time>
      </trkpt>
      <trkpt lat="44.55511" lon="2.6722">
        <ele>330.35</ele>
        <time>2012-08-10T13:54:48Z</time>
      </trkpt>
    </trkseg>
  </trk>
</gpx>